Saint Anthony, Minnesota
Current Conditions -  °F | °C
As of 3:53 PM on Monday 20 Oct 2014 (Local Time) from KMIC Reporting Station
Clear Clear  
Wind Chill: 64°   Ceiling: Unl
Heat Index: 64°   Visibility: 10mi
Dew Point: 41°   Wind: 12mph
Humidity: 43%   Direction: 320°NW
Pressure: 29.98"   Gusts: NA
Location:  45.0516°N, 93.2549°W
Report Text: KMIC 202053Z 32010KT 10SM CLR 18/05 A2998 RMK AO2 SLP152 T01780050 55002
Loading
Personal Weather Stations






























Interactive Weather Map
Tropical Storm Tracking
New forecast layout! Learn more

10-Day Weather Forecast

Advertisements
Track Severe Weather on mobile